UKHH/HRK METAR and TAF weather

Enter ICAO airport designator
Station Type Date Time Source
UKHH METAR 2020/01/23 15:00 UTC NOAA

UKHH 231500Z 34006MPS 9999 FEW033CB BKN049 M02/M10 Q1014 R25/520550 NOSIG


Station Type Date Time Source
UKHH Decoded METAR 2020/01/23 15:00 UTC NOAA

Kharkiv, Ukraine (UKHH) 49-58N 036-08E 155M
Jan 23, 2020 - 10:00 AM EST / 2020.01.23 1500 UTC
Wind: from the NNW (340 degrees) at 13 MPH (12 KT):0
Visibility: greater than 7 mile(s):0
Sky conditions: mostly cloudy
Weather: Cumulonimbus clouds observed
Temperature: 28 F (-2 C)
Windchill: 17 F (-8 C):1
Dew Point: 14 F (-10 C)
Relative Humidity: 54%
Pressure (altimeter): 29.94 in. Hg (1014 hPa)
ob: UKHH 231500Z 34006MPS 9999 FEW033CB BKN049 M02/M10 Q1014 R25/520550 NOSIG
cycle: 15

Station Type Date Time Source
UKHH TAF 2020/01/23 12:09 UTC NOAA

TAF UKHH 231105Z 2312/2412 32006G12MPS 9999 BKN010 SCT020CB TXM00/2412Z TNM05/2405Z
TEMPO 2312/2315 34009G15MPS 0600 +SHSN VV002
TEMPO 2315/2318 2100 -SHSN BKN007 BKN015CB PROB40
TEMPO 2315/2318 33009G16MPS PROB40
TEMPO 2409/2412 24010G16MPS 2100 -SN OVC007

Example: see airport list